createdAt,value
2023-04-09T00:00:12.680Z,26.57
2023-04-09T00:02:39.306Z,26.03
2023-04-09T00:05:07.408Z,24.97
2023-04-09T00:07:34.034Z,24.67
2023-04-09T00:10:00.579Z,24.87
2023-04-09T00:12:27.183Z,24.30
2023-04-09T00:14:53.664Z,27.77
2023-04-09T00:17:20.335Z,28.07
2023-04-09T00:19:46.999Z,30.17
2023-04-09T00:22:13.555Z,26.47
2023-04-09T00:24:40.066Z,26.30
2023-04-09T00:27:06.626Z,27.00
2023-04-09T00:29:33.148Z,32.80
2023-04-09T00:31:59.740Z,33.17
2023-04-09T00:34:26.366Z,31.67
2023-04-09T00:36:52.984Z,34.40
2023-04-09T00:39:19.543Z,34.63
2023-04-09T00:41:46.069Z,31.80
2023-04-09T00:44:12.608Z,31.53
2023-04-09T00:46:39.579Z,32.80
2023-04-09T00:49:06.599Z,31.77
2023-04-09T00:51:33.516Z,35.57
2023-04-09T00:54:00.283Z,33.40
2023-04-09T00:56:27.230Z,32.57
2023-04-09T00:58:54.190Z,34.87
2023-04-09T01:01:20.996Z,37.90
2023-04-09T01:03:47.792Z,39.60
2023-04-09T01:06:33.102Z,39.57
2023-04-09T01:09:02.673Z,39.70
2023-04-09T01:11:29.493Z,41.57
2023-04-09T01:14:07.121Z,41.63
2023-04-09T01:16:37.014Z,43.40
2023-04-09T01:19:11.311Z,42.03
2023-04-09T01:21:38.613Z,40.43
2023-04-09T01:24:17.426Z,39.50
2023-04-09T01:26:53.637Z,42.13
2023-04-09T01:29:23.925Z,46.47
2023-04-09T01:31:50.838Z,50.90
2023-04-09T01:34:19.445Z,47.47
2023-04-09T01:36:49.030Z,48.80
2023-04-09T01:39:15.810Z,47.63
2023-04-09T01:41:42.692Z,45.80
2023-04-09T01:44:10.497Z,46.40
2023-04-09T01:46:37.722Z,45.00
2023-04-09T01:49:04.967Z,43.87
2023-04-09T01:51:32.765Z,44.37
2023-04-09T01:53:59.909Z,43.57
2023-04-09T01:56:27.171Z,43.93
2023-04-09T01:58:53.980Z,44.93
2023-04-09T02:01:24.421Z,42.00
2023-04-09T02:04:00.819Z,40.50
2023-04-09T02:06:27.721Z,42.13
2023-04-09T02:08:55.391Z,43.77
2023-04-09T02:11:23.588Z,42.77
2023-04-09T02:13:51.700Z,39.63
2023-04-09T02:16:18.716Z,42.10
2023-04-09T02:18:45.582Z,38.83
2023-04-09T02:21:13.815Z,39.80
2023-04-09T02:23:40.897Z,37.43
2023-04-09T02:26:07.453Z,38.30
2023-04-09T02:28:34.045Z,41.70
2023-04-09T02:31:00.587Z,40.20
2023-04-09T02:33:27.234Z,41.13
2023-04-09T02:35:53.793Z,42.60
2023-04-09T02:38:20.427Z,40.23
2023-04-09T02:40:46.977Z,45.33
2023-04-09T02:43:13.648Z,43.00
2023-04-09T02:45:40.278Z,46.23
2023-04-09T02:48:06.937Z,47.87
2023-04-09T02:50:35.314Z,44.27
2023-04-09T02:53:02.477Z,42.47
2023-04-09T02:55:29.115Z,40.20
2023-04-09T02:57:55.783Z,39.87
2023-04-09T03:00:22.503Z,43.87
2023-04-09T03:02:49.432Z,43.07
2023-04-09T03:05:16.062Z,41.03
2023-04-09T03:07:42.638Z,46.43
2023-04-09T03:10:09.480Z,41.67
2023-04-09T03:12:36.117Z,42.03
2023-04-09T03:15:02.695Z,44.70
2023-04-09T03:17:31.963Z,45.47
2023-04-09T03:19:59.033Z,45.43
2023-04-09T03:22:36.568Z,41.93
2023-04-09T03:25:04.758Z,43.60
2023-04-09T03:27:32.454Z,41.63
2023-04-09T03:30:00.990Z,41.77
2023-04-09T03:32:35.255Z,41.93
2023-04-09T03:35:01.785Z,42.07
2023-04-09T03:37:29.282Z,41.67
2023-04-09T03:39:57.021Z,44.00
2023-04-09T03:42:27.026Z,42.07
2023-04-09T03:44:54.310Z,41.97
2023-04-09T03:47:43.558Z,42.43
2023-04-09T03:50:11.458Z,44.67
2023-04-09T03:52:51.085Z,42.27
2023-04-09T03:55:18.438Z,40.23
2023-04-09T03:57:45.228Z,39.87
2023-04-09T04:00:16.202Z,42.90
2023-04-09T04:03:03.858Z,40.80
2023-04-09T04:06:00.626Z,39.10
2023-04-09T04:08:28.137Z,42.47
2023-04-09T04:10:55.441Z,46.00
2023-04-09T04:13:22.516Z,41.50
2023-04-09T04:15:55.307Z,42.67
2023-04-09T04:18:23.301Z,43.43
2023-04-09T04:20:52.302Z,40.50
2023-04-09T04:23:18.936Z,40.47
2023-04-09T04:25:53.167Z,40.47
2023-04-09T04:28:27.058Z,49.80
2023-04-09T04:30:54.027Z,45.43
2023-04-09T04:33:20.735Z,43.73
2023-04-09T04:35:51.674Z,44.87
2023-04-09T04:38:32.828Z,40.40
2023-04-09T04:41:02.571Z,40.80
2023-04-09T04:43:30.662Z,41.90
2023-04-09T04:45:59.249Z,42.00
2023-04-09T04:48:29.027Z,41.87
2023-04-09T04:50:57.036Z,41.87
2023-04-09T04:53:25.377Z,49.37
2023-04-09T04:55:53.893Z,44.67
2023-04-09T04:58:25.166Z,43.03
2023-04-09T05:00:55.997Z,42.40
2023-04-09T05:03:23.252Z,44.40
2023-04-09T05:06:03.256Z,43.93
2023-04-09T05:08:38.179Z,43.87
2023-04-09T05:11:04.800Z,40.77
2023-04-09T05:13:37.632Z,39.43
2023-04-09T05:16:08.294Z,40.03
2023-04-09T05:18:36.604Z,40.67
2023-04-09T05:21:03.175Z,40.20
2023-04-09T05:23:31.777Z,41.67
2023-04-09T05:25:58.386Z,42.83
2023-04-09T05:28:34.373Z,42.17
2023-04-09T05:31:12.850Z,43.57
2023-04-09T05:33:45.805Z,43.87
2023-04-09T05:36:18.612Z,44.10
2023-04-09T05:38:48.157Z,45.53
2023-04-09T05:41:14.931Z,46.33
2023-04-09T05:43:53.222Z,49.90
2023-04-09T05:46:20.124Z,53.63
2023-04-09T05:48:49.866Z,54.27
2023-04-09T05:51:16.599Z,49.63
2023-04-09T05:53:44.714Z,48.67
2023-04-09T05:56:15.621Z,45.93
2023-04-09T05:58:50.232Z,50.50
2023-04-09T06:01:17.456Z,46.83
2023-04-09T06:03:44.211Z,49.20
2023-04-09T06:06:11.352Z,48.77
2023-04-09T06:08:37.871Z,49.10
2023-04-09T06:11:04.557Z,47.00
2023-04-09T06:13:31.123Z,52.90
2023-04-09T06:15:57.715Z,52.27
2023-04-09T06:18:24.749Z,53.60
2023-04-09T06:20:51.254Z,59.63
2023-04-09T06:23:17.853Z,53.57
2023-04-09T06:25:44.450Z,49.00
2023-04-09T06:28:11.516Z,48.97
2023-04-09T06:30:38.094Z,47.37
2023-04-09T06:33:04.719Z,47.53
2023-04-09T06:35:31.819Z,47.07
2023-04-09T06:37:58.444Z,44.83
2023-04-09T06:40:25.001Z,44.33
2023-04-09T06:42:51.590Z,42.53
2023-04-09T06:45:27.595Z,38.83
2023-04-09T06:47:54.145Z,39.83
2023-04-09T06:50:20.963Z,39.83
2023-04-09T06:52:47.481Z,41.20
2023-04-09T06:55:14.259Z,44.55
2023-04-09T06:57:40.797Z,44.90
2023-04-09T07:00:08.173Z,42.30
2023-04-09T07:02:34.815Z,41.17
2023-04-09T07:05:01.710Z,39.70
2023-04-09T07:07:28.238Z,40.43
2023-04-09T07:09:54.777Z,38.23
2023-04-09T07:12:28.253Z,38.67
2023-04-09T07:14:57.867Z,36.30
2023-04-09T07:17:24.443Z,34.30
2023-04-09T07:19:51.714Z,34.63
2023-04-09T07:22:18.568Z,35.47
2023-04-09T07:24:45.043Z,34.70
2023-04-09T07:27:11.536Z,36.97
2023-04-09T07:29:38.056Z,39.60
2023-04-09T07:32:04.742Z,35.43
2023-04-09T07:34:32.007Z,35.90
2023-04-09T07:36:58.493Z,32.97
2023-04-09T07:39:25.717Z,36.03
2023-04-09T07:41:52.798Z,35.47
2023-04-09T07:44:19.362Z,34.87
2023-04-09T07:46:46.162Z,34.23
2023-04-09T07:49:12.758Z,36.30
2023-04-09T07:51:39.286Z,38.53
2023-04-09T07:54:05.884Z,38.97
2023-04-09T07:56:32.409Z,37.33
2023-04-09T07:58:59.029Z,36.70
2023-04-09T08:01:26.582Z,37.20
2023-04-09T08:03:53.300Z,34.07
2023-04-09T08:06:19.881Z,37.57
2023-04-09T08:08:46.642Z,35.33
2023-04-09T08:11:13.209Z,34.20
2023-04-09T08:13:40.492Z,32.10
2023-04-09T08:16:07.080Z,33.83
2023-04-09T08:18:33.678Z,32.93
2023-04-09T08:21:04.114Z,33.03
2023-04-09T08:23:30.718Z,30.63
2023-04-09T08:25:58.440Z,31.07
2023-04-09T08:28:25.112Z,30.20
2023-04-09T08:30:51.963Z,32.30
2023-04-09T08:33:18.493Z,31.93
2023-04-09T08:35:45.554Z,32.93
2023-04-09T08:38:12.110Z,36.30
2023-04-09T08:40:38.604Z,34.17
2023-04-09T08:43:06.750Z,26.60
2023-04-09T08:45:33.645Z,23.97
2023-04-09T08:48:00.804Z,24.23
2023-04-09T08:50:27.574Z,23.13
2023-04-09T08:52:54.519Z,24.07
2023-04-09T08:55:21.912Z,25.53
2023-04-09T08:57:48.508Z,25.40
2023-04-09T09:00:15.066Z,24.03
2023-04-09T09:03:02.450Z,24.73
2023-04-09T09:05:55.695Z,23.87
2023-04-09T09:08:26.122Z,23.47
2023-04-09T09:10:52.618Z,21.63
2023-04-09T09:13:23.411Z,21.70
2023-04-09T09:15:52.919Z,22.13
2023-04-09T09:18:19.529Z,22.60
2023-04-09T09:20:46.199Z,21.30
2023-04-09T09:23:12.818Z,22.13
2023-04-09T09:25:40.138Z,25.07
2023-04-09T09:28:11.282Z,22.97
2023-04-09T09:30:39.861Z,23.17
2023-04-09T09:33:07.560Z,23.23
2023-04-09T09:35:48.007Z,24.10
2023-04-09T09:38:16.022Z,25.97
2023-04-09T09:40:42.678Z,23.50
2023-04-09T09:43:09.256Z,21.97
2023-04-09T09:45:36.525Z,21.20
2023-04-09T09:48:04.063Z,20.13
2023-04-09T09:50:31.719Z,22.20
2023-04-09T09:53:01.354Z,20.97
2023-04-09T09:55:30.665Z,20.03
2023-04-09T09:57:58.586Z,19.53
2023-04-09T10:00:25.651Z,21.40
2023-04-09T10:03:14.284Z,22.50
2023-04-09T10:05:41.222Z,21.13
2023-04-09T10:08:08.009Z,21.83
2023-04-09T10:10:35.048Z,21.07
2023-04-09T10:13:01.944Z,20.47
2023-04-09T10:15:29.230Z,21.37
2023-04-09T10:17:56.205Z,21.87
2023-04-09T10:20:41.847Z,20.83
2023-04-09T10:23:11.632Z,21.03
2023-04-09T10:25:38.412Z,20.40
2023-04-09T10:28:14.549Z,20.07
2023-04-09T10:30:41.068Z,21.20
2023-04-09T10:33:14.758Z,22.00
2023-04-09T10:35:42.292Z,20.53
2023-04-09T10:38:09.739Z,22.07
2023-04-09T10:40:41.090Z,22.43
2023-04-09T10:43:08.809Z,21.73
2023-04-09T10:45:42.020Z,22.33
2023-04-09T10:48:14.650Z,22.80
2023-04-09T10:50:44.697Z,24.63
2023-04-09T10:53:24.033Z,22.27
2023-04-09T10:55:51.406Z,22.60
2023-04-09T10:58:17.968Z,22.17
2023-04-09T11:00:45.474Z,21.33
2023-04-09T11:03:20.368Z,21.40
2023-04-09T11:05:53.079Z,19.57
2023-04-09T11:08:19.773Z,20.57
2023-04-09T11:10:49.796Z,20.97
2023-04-09T11:13:18.563Z,20.80
2023-04-09T11:15:45.785Z,20.57
2023-04-09T11:18:30.902Z,22.27
2023-04-09T11:20:58.311Z,21.23
2023-04-09T11:23:25.386Z,24.13
2023-04-09T11:25:52.788Z,21.97
2023-04-09T11:28:19.857Z,20.10
2023-04-09T11:30:49.622Z,22.27
2023-04-09T11:33:18.279Z,22.20
2023-04-09T11:35:46.447Z,21.77
2023-04-09T11:38:13.113Z,21.50
2023-04-09T11:40:49.572Z,20.03
2023-04-09T11:43:17.057Z,21.00
2023-04-09T11:45:44.342Z,19.47
2023-04-09T11:48:11.527Z,18.80
2023-04-09T11:50:38.111Z,20.50
2023-04-09T11:53:17.514Z,19.60
2023-04-09T11:55:46.809Z,18.60
2023-04-09T11:58:13.468Z,18.43
2023-04-09T12:00:43.010Z,18.03
2023-04-09T12:03:10.735Z,18.07
2023-04-09T12:05:39.167Z,18.37
2023-04-09T12:08:08.449Z,18.93
2023-04-09T12:10:36.154Z,18.40
2023-04-09T12:13:03.588Z,18.10
2023-04-09T12:15:34.131Z,18.60
2023-04-09T12:18:01.103Z,18.07
2023-04-09T12:20:28.866Z,18.80
2023-04-09T12:22:56.098Z,18.87
2023-04-09T12:25:22.822Z,18.40
2023-04-09T12:27:49.393Z,18.23
2023-04-09T12:30:16.204Z,16.67
2023-04-09T12:32:44.854Z,17.63
2023-04-09T12:35:11.427Z,17.03
2023-04-09T12:37:37.933Z,15.80
2023-04-09T12:40:04.702Z,17.47
2023-04-09T12:42:31.401Z,16.07
2023-04-09T12:44:57.963Z,16.07
2023-04-09T12:47:24.643Z,16.23
2023-04-09T12:49:51.284Z,16.23
2023-04-09T12:52:18.644Z,15.93
2023-04-09T12:54:45.243Z,15.30
2023-04-09T12:57:11.767Z,15.80
2023-04-09T12:59:38.258Z,15.43
2023-04-09T13:02:04.916Z,14.90
2023-04-09T13:04:31.725Z,16.30
2023-04-09T13:06:58.372Z,15.37
2023-04-09T13:09:25.703Z,15.73
2023-04-09T13:11:52.486Z,16.13
2023-04-09T13:14:19.018Z,14.67
2023-04-09T13:16:45.680Z,15.20
2023-04-09T13:19:12.274Z,15.27
2023-04-09T13:21:38.785Z,15.97
2023-04-09T13:24:05.383Z,15.30
2023-04-09T13:26:32.069Z,15.27
2023-04-09T13:29:02.204Z,18.70
2023-04-09T13:31:28.836Z,16.40
2023-04-09T13:33:55.587Z,17.60
2023-04-09T13:36:22.114Z,15.30
2023-04-09T13:38:48.996Z,15.17
2023-04-09T13:41:15.741Z,14.37
2023-04-09T13:43:42.252Z,14.87
2023-04-09T13:46:08.872Z,14.80
2023-04-09T13:48:35.518Z,15.10
2023-04-09T13:51:02.126Z,14.90
2023-04-09T13:53:28.651Z,13.90
2023-04-09T13:55:55.431Z,13.90
2023-04-09T13:58:23.328Z,13.07
2023-04-09T14:00:49.838Z,14.33
2023-04-09T14:03:16.854Z,14.77
2023-04-09T14:05:43.521Z,14.83
2023-04-09T14:08:10.115Z,15.07
2023-04-09T14:10:36.800Z,13.60
2023-04-09T14:13:06.528Z,13.70
2023-04-09T14:15:34.943Z,13.80
2023-04-09T14:18:01.619Z,12.17
2023-04-09T14:20:28.349Z,13.20
2023-04-09T14:22:54.897Z,14.43
2023-04-09T14:25:21.461Z,14.17
2023-04-09T14:27:48.012Z,13.33
2023-04-09T14:30:14.559Z,14.27
2023-04-09T14:32:41.098Z,14.67
2023-04-09T14:35:07.914Z,14.47
2023-04-09T14:37:34.565Z,14.47
2023-04-09T14:40:01.099Z,12.77
2023-04-09T14:42:27.765Z,12.53
2023-04-09T14:44:54.292Z,11.93
2023-04-09T14:47:21.063Z,11.87
2023-04-09T14:49:47.656Z,21.33
2023-04-09T14:52:14.136Z,15.97
2023-04-09T14:54:40.702Z,12.70
2023-04-09T14:57:07.440Z,11.40
2023-04-09T14:59:34.332Z,11.63
2023-04-09T15:02:00.991Z,10.87
2023-04-09T15:04:27.955Z,12.53
2023-04-09T15:06:54.592Z,11.83
2023-04-09T15:09:21.115Z,12.00
2023-04-09T15:11:47.694Z,12.50
2023-04-09T15:14:14.235Z,11.03
2023-04-09T15:16:40.872Z,12.20
2023-04-09T15:19:07.790Z,11.90
2023-04-09T15:21:34.329Z,13.70
2023-04-09T15:24:00.930Z,13.47
2023-04-09T15:26:27.514Z,13.30
2023-04-09T15:29:04.206Z,11.77
2023-04-09T15:31:31.570Z,12.00
2023-04-09T15:33:58.089Z,12.50
2023-04-09T15:36:24.686Z,12.57
2023-04-09T15:38:53.470Z,13.23
2023-04-09T15:41:21.927Z,12.30
2023-04-09T15:43:48.458Z,12.10
2023-04-09T15:46:16.349Z,11.87
2023-04-09T15:48:42.940Z,21.43
2023-04-09T15:51:09.645Z,17.97
2023-04-09T15:53:36.156Z,12.80
2023-04-09T15:56:03.269Z,12.40
2023-04-09T15:58:29.947Z,11.83
2023-04-09T16:00:56.459Z,11.63
2023-04-09T16:03:23.041Z,11.77
2023-04-09T16:05:49.591Z,12.23
2023-04-09T16:08:16.153Z,11.20
2023-04-09T16:10:42.673Z,11.67
2023-04-09T16:13:09.267Z,11.13
2023-04-09T16:15:36.013Z,12.30
2023-04-09T16:18:02.653Z,12.47
2023-04-09T16:20:29.450Z,15.30
2023-04-09T16:22:55.945Z,16.30
2023-04-09T16:25:24.472Z,13.20
2023-04-09T16:27:51.032Z,11.60
2023-04-09T16:30:17.546Z,12.63
2023-04-09T16:32:44.100Z,11.87
2023-04-09T16:35:10.730Z,11.53
2023-04-09T16:37:38.718Z,11.50
2023-04-09T16:40:05.862Z,11.30
2023-04-09T16:42:32.842Z,11.47
2023-04-09T16:44:59.346Z,12.33
2023-04-09T16:47:25.974Z,11.43
2023-04-09T16:49:52.630Z,10.57
2023-04-09T16:52:19.123Z,11.80
2023-04-09T16:54:45.856Z,11.40
2023-04-09T16:57:12.694Z,11.23
2023-04-09T16:59:40.810Z,11.37
2023-04-09T17:02:07.762Z,12.50
2023-04-09T17:04:34.654Z,11.70
2023-04-09T17:07:01.393Z,11.67
2023-04-09T17:09:28.327Z,12.33
2023-04-09T17:11:55.435Z,13.00
2023-04-09T17:14:21.954Z,12.67
2023-04-09T17:16:48.698Z,12.23
2023-04-09T17:19:15.413Z,12.43
2023-04-09T17:21:42.012Z,15.03
2023-04-09T17:24:08.544Z,14.40
2023-04-09T17:26:35.211Z,13.20
2023-04-09T17:29:02.053Z,15.37
2023-04-09T17:31:28.670Z,16.57
2023-04-09T17:33:55.864Z,17.40
2023-04-09T17:36:25.707Z,17.57
2023-04-09T17:38:52.975Z,16.50
2023-04-09T17:41:19.773Z,16.57
2023-04-09T17:43:46.315Z,16.00
2023-04-09T17:46:12.971Z,16.90
2023-04-09T17:48:39.826Z,17.93
2023-04-09T17:51:07.020Z,18.57
2023-04-09T17:53:33.850Z,18.23
2023-04-09T17:56:03.308Z,16.53
2023-04-09T17:58:30.167Z,16.60
2023-04-09T18:00:56.777Z,18.67
2023-04-09T18:03:23.553Z,18.70
2023-04-09T18:05:50.339Z,19.13
2023-04-09T18:08:17.468Z,17.50
2023-04-09T18:10:44.055Z,17.13
2023-04-09T18:13:10.662Z,16.20
2023-04-09T18:15:37.305Z,15.27
2023-04-09T18:18:03.887Z,14.33
2023-04-09T18:20:30.549Z,15.00
2023-04-09T18:22:57.156Z,15.97
2023-04-09T18:25:23.980Z,14.43
2023-04-09T18:27:50.509Z,15.33
2023-04-09T18:30:17.044Z,16.77
2023-04-09T18:32:44.027Z,17.10
2023-04-09T18:35:10.870Z,19.07
2023-04-09T18:37:38.258Z,17.30
2023-04-09T18:40:06.162Z,16.33
2023-04-09T18:42:32.746Z,18.47
2023-04-09T18:44:59.318Z,18.43
2023-04-09T18:47:25.973Z,18.70
2023-04-09T18:49:52.545Z,18.60
2023-04-09T18:52:19.049Z,19.03
2023-04-09T18:54:45.618Z,18.80
2023-04-09T18:57:12.153Z,18.90
2023-04-09T18:59:40.054Z,19.30
2023-04-09T19:02:06.815Z,20.37
2023-04-09T19:04:39.610Z,19.97
2023-04-09T19:07:06.654Z,21.43
2023-04-09T19:09:33.698Z,20.20
2023-04-09T19:12:01.964Z,20.40
2023-04-09T19:14:28.744Z,19.13
2023-04-09T19:16:55.795Z,20.73
2023-04-09T19:19:23.366Z,18.97
2023-04-09T19:21:49.911Z,20.37
2023-04-09T19:24:16.531Z,19.07
2023-04-09T19:26:43.098Z,19.57
2023-04-09T19:29:09.700Z,20.47
2023-04-09T19:31:36.386Z,21.97
2023-04-09T19:34:03.074Z,21.27
2023-04-09T19:36:31.994Z,21.60
2023-04-09T19:38:58.705Z,35.30
2023-04-09T19:41:25.314Z,37.53
2023-04-09T19:43:51.848Z,32.67
2023-04-09T19:46:18.335Z,28.67
2023-04-09T19:48:45.019Z,27.33
2023-04-09T19:51:18.066Z,25.23
2023-04-09T19:53:46.927Z,24.03
2023-04-09T19:56:13.926Z,24.40
2023-04-09T19:58:41.370Z,25.93
2023-04-09T20:01:08.159Z,24.27
2023-04-09T20:03:34.799Z,22.07
2023-04-09T20:06:06.437Z,21.97
2023-04-09T20:08:32.944Z,20.43
2023-04-09T20:10:59.471Z,20.43
2023-04-09T20:13:25.982Z,21.17
2023-04-09T20:15:52.479Z,20.30
2023-04-09T20:18:19.062Z,20.17
2023-04-09T20:20:45.603Z,19.83
2023-04-09T20:23:12.119Z,21.37
2023-04-09T20:25:38.722Z,21.20
2023-04-09T20:28:05.379Z,20.27
2023-04-09T20:30:32.240Z,20.83
2023-04-09T20:32:58.926Z,18.53
2023-04-09T20:35:25.528Z,17.97
2023-04-09T20:37:54.274Z,16.93
2023-04-09T20:40:20.883Z,17.07
2023-04-09T20:42:47.480Z,15.93
2023-04-09T20:45:14.176Z,16.00
2023-04-09T20:47:41.110Z,15.83
2023-04-09T20:50:08.143Z,15.77
2023-04-09T20:52:34.705Z,16.17
2023-04-09T20:55:01.376Z,15.63
2023-04-09T20:57:28.169Z,16.10
2023-04-09T20:59:54.778Z,15.97
2023-04-09T21:02:21.980Z,17.43
2023-04-09T21:04:48.642Z,17.17
2023-04-09T21:07:15.612Z,15.80
2023-04-09T21:09:42.148Z,17.10
2023-04-09T21:12:08.709Z,17.83
2023-04-09T21:14:35.504Z,17.23
2023-04-09T21:17:02.116Z,16.57
2023-04-09T21:19:28.687Z,17.37
2023-04-09T21:21:55.479Z,16.03
2023-04-09T21:24:22.076Z,15.83
2023-04-09T21:26:52.202Z,17.17
2023-04-09T21:29:19.769Z,15.90
2023-04-09T21:31:46.463Z,15.43
2023-04-09T21:34:13.053Z,17.13
2023-04-09T21:36:39.845Z,18.00
2023-04-09T21:39:06.394Z,16.60
2023-04-09T21:41:32.972Z,18.37
2023-04-09T21:44:03.587Z,18.70
2023-04-09T21:46:30.303Z,20.43
2023-04-09T21:48:56.847Z,28.10
2023-04-09T21:51:23.387Z,28.77
2023-04-09T21:53:50.165Z,25.77
2023-04-09T21:56:16.692Z,25.50
2023-04-09T21:58:43.285Z,24.67
2023-04-09T22:01:19.185Z,24.17
2023-04-09T22:03:54.931Z,23.77
2023-04-09T22:06:21.464Z,23.60
2023-04-09T22:08:55.688Z,21.90
2023-04-09T22:11:24.814Z,21.07
2023-04-09T22:13:51.346Z,21.30
2023-04-09T22:16:19.112Z,20.80
2023-04-09T22:18:45.706Z,19.67
2023-04-09T22:21:15.762Z,19.30
2023-04-09T22:23:42.421Z,18.33
2023-04-09T22:26:09.105Z,19.40
2023-04-09T22:28:35.628Z,17.83
2023-04-09T22:31:02.650Z,18.80
2023-04-09T22:33:29.232Z,17.80
2023-04-09T22:35:56.143Z,17.63
2023-04-09T22:38:22.856Z,16.30
2023-04-09T22:40:49.704Z,19.43
2023-04-09T22:43:17.112Z,18.93
2023-04-09T22:45:50.268Z,19.90
2023-04-09T22:48:16.831Z,20.60
2023-04-09T22:50:44.098Z,20.23
2023-04-09T22:53:10.834Z,20.40
2023-04-09T22:55:38.246Z,21.70
2023-04-09T22:58:04.760Z,19.50
2023-04-09T23:00:31.255Z,19.70
2023-04-09T23:02:57.944Z,18.43
2023-04-09T23:05:24.599Z,18.07
2023-04-09T23:07:51.327Z,18.23
2023-04-09T23:10:18.508Z,19.70
2023-04-09T23:12:45.304Z,17.60
2023-04-09T23:15:12.095Z,18.20
2023-04-09T23:17:38.718Z,17.53
2023-04-09T23:20:06.860Z,18.07
2023-04-09T23:22:33.629Z,18.57
2023-04-09T23:25:00.208Z,16.80
2023-04-09T23:27:28.822Z,16.73
2023-04-09T23:29:56.264Z,18.13
2023-04-09T23:32:22.963Z,18.40
2023-04-09T23:34:49.571Z,17.63
2023-04-09T23:37:16.448Z,17.27
2023-04-09T23:39:43.601Z,19.53
2023-04-09T23:42:10.326Z,19.07
2023-04-09T23:44:36.871Z,18.73
2023-04-09T23:47:05.817Z,18.40
2023-04-09T23:49:32.464Z,17.57
2023-04-09T23:51:58.985Z,18.37
2023-04-09T23:54:25.474Z,16.60
2023-04-09T23:56:52.019Z,19.07
2023-04-09T23:59:18.516Z,19.13
